sensor_id;sensor_type;location;lat;lon;timestamp;temperature;humidity
3756;DHT22;1893;52.526;13.360;2024-02-15T00:02:06;9.00;99.90
3756;DHT22;1893;52.526;13.360;2024-02-15T00:04:45;9.00;99.90
3756;DHT22;1893;52.526;13.360;2024-02-15T00:07:10;9.00;99.90
3756;DHT22;1893;52.526;13.360;2024-02-15T00:09:36;9.00;99.90
3756;DHT22;1893;52.526;13.360;2024-02-15T00:12:02;9.00;99.90
3756;DHT22;1893;52.526;13.360;2024-02-15T00:14:27;9.00;99.90
3756;DHT22;1893;52.526;13.360;2024-02-15T00:16:54;9.00;99.90
3756;DHT22;1893;52.526;13.360;2024-02-15T00:19:20;9.10;99.90
3756;DHT22;1893;52.526;13.360;2024-02-15T00:21:47;9.00;99.90
3756;DHT22;1893;52.526;13.360;2024-02-15T00:24:12;9.00;99.90
3756;DHT22;1893;52.526;13.360;2024-02-15T00:26:40;9.00;99.90
3756;DHT22;1893;52.526;13.360;2024-02-15T00:29:06;9.00;99.90
3756;DHT22;1893;52.526;13.360;2024-02-15T00:31:31;9.10;99.90
3756;DHT22;1893;52.526;13.360;2024-02-15T00:33:57;9.10;99.90
3756;DHT22;1893;52.526;13.360;2024-02-15T00:36:24;9.10;99.90
3756;DHT22;1893;52.526;13.360;2024-02-15T00:38:50;9.10;99.90
3756;DHT22;1893;52.526;13.360;2024-02-15T00:41:17;9.00;99.90
3756;DHT22;1893;52.526;13.360;2024-02-15T00:43:43;9.10;99.90
3756;DHT22;1893;52.526;13.360;2024-02-15T00:46:08;9.10;99.90
3756;DHT22;1893;52.526;13.360;2024-02-15T00:48:34;9.20;99.90
3756;DHT22;1893;52.526;13.360;2024-02-15T00:51:00;9.10;99.90
3756;DHT22;1893;52.526;13.360;2024-02-15T00:53:25;9.20;99.90
3756;DHT22;1893;52.526;13.360;2024-02-15T00:55:51;9.10;99.90
3756;DHT22;1893;52.526;13.360;2024-02-15T00:58:17;9.10;99.90
3756;DHT22;1893;52.526;13.360;2024-02-15T01:00:43;9.10;99.90
3756;DHT22;1893;52.526;13.360;2024-02-15T01:03:08;9.20;99.90
3756;DHT22;1893;52.526;13.360;2024-02-15T01:05:34;9.20;99.90
3756;DHT22;1893;52.526;13.360;2024-02-15T01:08:00;9.10;99.90
3756;DHT22;1893;52.526;13.360;2024-02-15T01:10:25;9.10;99.90
3756;DHT22;1893;52.526;13.360;2024-02-15T01:12:52;9.10;99.90
3756;DHT22;1893;52.526;13.360;2024-02-15T01:15:18;9.20;99.90
3756;DHT22;1893;52.526;13.360;2024-02-15T01:17:45;9.10;99.90
3756;DHT22;1893;52.526;13.360;2024-02-15T01:20:11;9.10;99.90
3756;DHT22;1893;52.526;13.360;2024-02-15T01:22:37;9.10;99.90
3756;DHT22;1893;52.526;13.360;2024-02-15T01:25:03;9.10;99.90
3756;DHT22;1893;52.526;13.360;2024-02-15T01:27:29;9.10;99.90
3756;DHT22;1893;52.526;13.360;2024-02-15T01:29:58;9.10;99.90
3756;DHT22;1893;52.526;13.360;2024-02-15T01:32:24;9.10;99.90
3756;DHT22;1893;52.526;13.360;2024-02-15T01:34:51;9.10;99.90
3756;DHT22;1893;52.526;13.360;2024-02-15T01:37:19;9.10;99.90
3756;DHT22;1893;52.526;13.360;2024-02-15T01:39:45;9.10;99.90
3756;DHT22;1893;52.526;13.360;2024-02-15T01:42:11;9.10;99.90
3756;DHT22;1893;52.526;13.360;2024-02-15T01:44:42;9.10;99.90
3756;DHT22;1893;52.526;13.360;2024-02-15T01:47:10;9.10;99.90
3756;DHT22;1893;52.526;13.360;2024-02-15T01:49:36;9.10;99.90
3756;DHT22;1893;52.526;13.360;2024-02-15T01:52:04;9.10;99.90
3756;DHT22;1893;52.526;13.360;2024-02-15T01:54:30;9.10;99.90
3756;DHT22;1893;52.526;13.360;2024-02-15T01:56:57;9.10;99.90
3756;DHT22;1893;52.526;13.360;2024-02-15T01:59:23;9.10;99.90
3756;DHT22;1893;52.526;13.360;2024-02-15T02:01:50;9.10;99.90
3756;DHT22;1893;52.526;13.360;2024-02-15T02:04:16;9.10;99.90
3756;DHT22;1893;52.526;13.360;2024-02-15T02:06:41;9.10;99.90
3756;DHT22;1893;52.526;13.360;2024-02-15T02:09:11;9.10;99.90
3756;DHT22;1893;52.526;13.360;2024-02-15T02:11:49;9.10;99.90
3756;DHT22;1893;52.526;13.360;2024-02-15T02:14:16;9.10;99.90
3756;DHT22;1893;52.526;13.360;2024-02-15T02:16:41;9.10;99.90
3756;DHT22;1893;52.526;13.360;2024-02-15T02:19:07;9.10;99.90
3756;DHT22;1893;52.526;13.360;2024-02-15T02:21:35;9.20;99.90
3756;DHT22;1893;52.526;13.360;2024-02-15T02:24:03;9.10;99.90
3756;DHT22;1893;52.526;13.360;2024-02-15T02:26:34;9.10;99.90
3756;DHT22;1893;52.526;13.360;2024-02-15T02:29:02;9.10;99.90
3756;DHT22;1893;52.526;13.360;2024-02-15T02:31:33;9.10;99.90
3756;DHT22;1893;52.526;13.360;2024-02-15T02:34:02;9.10;99.90
3756;DHT22;1893;52.526;13.360;2024-02-15T02:36:28;9.10;99.90
3756;DHT22;1893;52.526;13.360;2024-02-15T02:38:55;9.10;99.90
3756;DHT22;1893;52.526;13.360;2024-02-15T02:41:21;9.10;99.90
3756;DHT22;1893;52.526;13.360;2024-02-15T02:43:46;9.20;99.90
3756;DHT22;1893;52.526;13.360;2024-02-15T02:46:12;9.10;99.90
3756;DHT22;1893;52.526;13.360;2024-02-15T02:48:39;9.10;99.90
3756;DHT22;1893;52.526;13.360;2024-02-15T02:51:06;9.30;99.90
3756;DHT22;1893;52.526;13.360;2024-02-15T02:53:31;9.20;99.90
3756;DHT22;1893;52.526;13.360;2024-02-15T02:55:57;9.20;99.90
3756;DHT22;1893;52.526;13.360;2024-02-15T02:58:23;9.20;99.90
3756;DHT22;1893;52.526;13.360;2024-02-15T03:00:49;9.20;99.90
3756;DHT22;1893;52.526;13.360;2024-02-15T03:03:15;9.20;99.90
3756;DHT22;1893;52.526;13.360;2024-02-15T03:05:41;9.20;99.90
3756;DHT22;1893;52.526;13.360;2024-02-15T03:08:11;9.20;99.90
3756;DHT22;1893;52.526;13.360;2024-02-15T03:10:38;9.20;99.90
3756;DHT22;1893;52.526;13.360;2024-02-15T03:13:05;9.20;99.90
3756;DHT22;1893;52.526;13.360;2024-02-15T03:15:30;9.20;99.90
3756;DHT22;1893;52.526;13.360;2024-02-15T03:17:58;9.20;99.90
3756;DHT22;1893;52.526;13.360;2024-02-15T03:20:24;9.30;99.90
3756;DHT22;1893;52.526;13.360;2024-02-15T03:25:17;9.20;99.90
3756;DHT22;1893;52.526;13.360;2024-02-15T03:27:42;9.20;99.90
3756;DHT22;1893;52.526;13.360;2024-02-15T03:30:08;9.30;99.90
3756;DHT22;1893;52.526;13.360;2024-02-15T03:32:35;9.30;99.90
3756;DHT22;1893;52.526;13.360;2024-02-15T03:35:02;9.30;99.90
3756;DHT22;1893;52.526;13.360;2024-02-15T03:37:28;9.20;99.90
3756;DHT22;1893;52.526;13.360;2024-02-15T03:39:54;9.20;99.90
3756;DHT22;1893;52.526;13.360;2024-02-15T03:42:20;9.20;99.90
3756;DHT22;1893;52.526;13.360;2024-02-15T03:44:46;9.20;99.90
3756;DHT22;1893;52.526;13.360;2024-02-15T03:47:13;9.20;99.90
3756;DHT22;1893;52.526;13.360;2024-02-15T03:49:40;9.20;99.90
3756;DHT22;1893;52.526;13.360;2024-02-15T03:52:08;9.20;99.90
3756;DHT22;1893;52.526;13.360;2024-02-15T03:54:36;9.20;99.90
3756;DHT22;1893;52.526;13.360;2024-02-15T03:57:01;9.20;99.90
3756;DHT22;1893;52.526;13.360;2024-02-15T03:59:27;9.30;99.90
3756;DHT22;1893;52.526;13.360;2024-02-15T04:01:53;9.30;99.90
3756;DHT22;1893;52.526;13.360;2024-02-15T04:04:20;9.30;99.90
3756;DHT22;1893;52.526;13.360;2024-02-15T04:06:51;9.30;99.90
3756;DHT22;1893;52.526;13.360;2024-02-15T04:09:18;9.30;99.90
3756;DHT22;1893;52.526;13.360;2024-02-15T04:11:47;9.30;99.90
3756;DHT22;1893;52.526;13.360;2024-02-15T04:14:16;9.30;99.90
3756;DHT22;1893;52.526;13.360;2024-02-15T04:16:43;9.30;99.90
3756;DHT22;1893;52.526;13.360;2024-02-15T04:19:10;9.30;99.90
3756;DHT22;1893;52.526;13.360;2024-02-15T04:21:36;9.30;99.90
3756;DHT22;1893;52.526;13.360;2024-02-15T04:24:03;9.30;99.90
3756;DHT22;1893;52.526;13.360;2024-02-15T04:26:30;9.30;99.90
3756;DHT22;1893;52.526;13.360;2024-02-15T04:28:57;9.30;99.90
3756;DHT22;1893;52.526;13.360;2024-02-15T04:31:24;9.30;99.90
3756;DHT22;1893;52.526;13.360;2024-02-15T04:33:55;9.30;99.90
3756;DHT22;1893;52.526;13.360;2024-02-15T04:36:24;9.30;99.90
3756;DHT22;1893;52.526;13.360;2024-02-15T04:38:51;9.30;99.90
3756;DHT22;1893;52.526;13.360;2024-02-15T04:41:17;9.30;99.90
3756;DHT22;1893;52.526;13.360;2024-02-15T04:43:49;9.30;99.90
3756;DHT22;1893;52.526;13.360;2024-02-15T04:46:15;9.40;99.90
3756;DHT22;1893;52.526;13.360;2024-02-15T04:48:41;9.30;99.90
3756;DHT22;1893;52.526;13.360;2024-02-15T04:51:09;9.30;99.90
3756;DHT22;1893;52.526;13.360;2024-02-15T04:53:36;9.30;99.90
3756;DHT22;1893;52.526;13.360;2024-02-15T04:56:04;9.40;99.90
3756;DHT22;1893;52.526;13.360;2024-02-15T04:58:35;9.40;99.90
3756;DHT22;1893;52.526;13.360;2024-02-15T05:01:02;9.40;99.90
3756;DHT22;1893;52.526;13.360;2024-02-15T05:03:31;9.40;99.90
3756;DHT22;1893;52.526;13.360;2024-02-15T05:06:00;9.40;99.90
3756;DHT22;1893;52.526;13.360;2024-02-15T05:08:26;9.50;99.90
3756;DHT22;1893;52.526;13.360;2024-02-15T05:10:51;9.40;99.90
3756;DHT22;1893;52.526;13.360;2024-02-15T05:13:24;9.40;99.90
3756;DHT22;1893;52.526;13.360;2024-02-15T05:15:49;9.40;99.90
3756;DHT22;1893;52.526;13.360;2024-02-15T05:18:15;9.40;99.90
3756;DHT22;1893;52.526;13.360;2024-02-15T05:20:42;9.40;99.90
3756;DHT22;1893;52.526;13.360;2024-02-15T05:23:08;9.40;99.90
3756;DHT22;1893;52.526;13.360;2024-02-15T05:25:34;9.40;99.90
3756;DHT22;1893;52.526;13.360;2024-02-15T05:28:01;9.40;99.90
3756;DHT22;1893;52.526;13.360;2024-02-15T05:30:26;9.40;99.90
3756;DHT22;1893;52.526;13.360;2024-02-15T05:32:52;9.40;99.90
3756;DHT22;1893;52.526;13.360;2024-02-15T05:35:18;9.40;99.90
3756;DHT22;1893;52.526;13.360;2024-02-15T05:37:44;9.40;99.90
3756;DHT22;1893;52.526;13.360;2024-02-15T05:40:11;9.50;99.90
3756;DHT22;1893;52.526;13.360;2024-02-15T05:42:42;9.50;99.90
3756;DHT22;1893;52.526;13.360;2024-02-15T05:47:54;9.50;99.90
3756;DHT22;1893;52.526;13.360;2024-02-15T05:50:20;9.50;99.90
3756;DHT22;1893;52.526;13.360;2024-02-15T05:52:47;9.50;99.90
3756;DHT22;1893;52.526;13.360;2024-02-15T05:55:13;9.50;99.90
3756;DHT22;1893;52.526;13.360;2024-02-15T05:57:43;9.50;99.90
3756;DHT22;1893;52.526;13.360;2024-02-15T06:00:09;9.50;99.90
3756;DHT22;1893;52.526;13.360;2024-02-15T06:02:35;9.50;99.90
3756;DHT22;1893;52.526;13.360;2024-02-15T06:05:01;9.60;99.90
3756;DHT22;1893;52.526;13.360;2024-02-15T06:07:29;9.50;99.90
3756;DHT22;1893;52.526;13.360;2024-02-15T06:09:57;9.50;99.90
3756;DHT22;1893;52.526;13.360;2024-02-15T06:12:23;9.60;99.90
3756;DHT22;1893;52.526;13.360;2024-02-15T06:14:48;9.60;99.90
3756;DHT22;1893;52.526;13.360;2024-02-15T06:17:15;9.60;99.90
3756;DHT22;1893;52.526;13.360;2024-02-15T06:19:40;9.60;99.90
3756;DHT22;1893;52.526;13.360;2024-02-15T06:22:06;9.60;99.90
3756;DHT22;1893;52.526;13.360;2024-02-15T06:24:31;9.60;99.90
3756;DHT22;1893;52.526;13.360;2024-02-15T06:26:57;9.60;99.90
3756;DHT22;1893;52.526;13.360;2024-02-15T06:29:25;9.60;99.90
3756;DHT22;1893;52.526;13.360;2024-02-15T06:32:10;9.70;99.90
3756;DHT22;1893;52.526;13.360;2024-02-15T06:34:54;9.70;99.90
3756;DHT22;1893;52.526;13.360;2024-02-15T06:37:39;9.70;99.90
3756;DHT22;1893;52.526;13.360;2024-02-15T06:40:23;9.70;99.90
3756;DHT22;1893;52.526;13.360;2024-02-15T06:42:49;9.70;99.90
3756;DHT22;1893;52.526;13.360;2024-02-15T06:45:14;9.70;99.90
3756;DHT22;1893;52.526;13.360;2024-02-15T06:47:42;9.70;99.90
3756;DHT22;1893;52.526;13.360;2024-02-15T06:50:11;9.70;99.90
3756;DHT22;1893;52.526;13.360;2024-02-15T06:52:38;9.70;99.90
3756;DHT22;1893;52.526;13.360;2024-02-15T06:55:07;9.70;99.90
3756;DHT22;1893;52.526;13.360;2024-02-15T06:57:34;9.70;99.90
3756;DHT22;1893;52.526;13.360;2024-02-15T07:00:04;9.70;99.90
3756;DHT22;1893;52.526;13.360;2024-02-15T07:02:34;9.70;99.90
3756;DHT22;1893;52.526;13.360;2024-02-15T07:04:59;9.70;99.90
3756;DHT22;1893;52.526;13.360;2024-02-15T07:07:26;9.70;99.90
3756;DHT22;1893;52.526;13.360;2024-02-15T07:09:51;9.80;99.90
3756;DHT22;1893;52.526;13.360;2024-02-15T07:12:17;9.80;99.90
3756;DHT22;1893;52.526;13.360;2024-02-15T07:14:45;9.90;99.90
3756;DHT22;1893;52.526;13.360;2024-02-15T07:17:12;9.90;99.90
3756;DHT22;1893;52.526;13.360;2024-02-15T07:19:44;9.90;99.90
3756;DHT22;1893;52.526;13.360;2024-02-15T07:22:10;9.90;99.90
3756;DHT22;1893;52.526;13.360;2024-02-15T07:24:37;9.90;99.90
3756;DHT22;1893;52.526;13.360;2024-02-15T07:27:05;10.00;99.90
3756;DHT22;1893;52.526;13.360;2024-02-15T07:29:30;10.00;99.90
3756;DHT22;1893;52.526;13.360;2024-02-15T07:32:00;10.00;99.90
3756;DHT22;1893;52.526;13.360;2024-02-15T07:34:32;10.00;99.90
3756;DHT22;1893;52.526;13.360;2024-02-15T07:37:02;10.00;99.90
3756;DHT22;1893;52.526;13.360;2024-02-15T07:39:28;10.10;99.90
3756;DHT22;1893;52.526;13.360;2024-02-15T07:41:54;10.10;99.90
3756;DHT22;1893;52.526;13.360;2024-02-15T07:44:20;10.10;99.90
3756;DHT22;1893;52.526;13.360;2024-02-15T07:46:47;10.10;99.90
3756;DHT22;1893;52.526;13.360;2024-02-15T07:49:13;10.10;99.90
3756;DHT22;1893;52.526;13.360;2024-02-15T07:51:39;10.20;99.90
3756;DHT22;1893;52.526;13.360;2024-02-15T07:54:04;10.20;99.90
3756;DHT22;1893;52.526;13.360;2024-02-15T07:56:30;10.20;99.90
3756;DHT22;1893;52.526;13.360;2024-02-15T07:58:56;10.30;99.90
3756;DHT22;1893;52.526;13.360;2024-02-15T08:01:22;10.30;99.90
3756;DHT22;1893;52.526;13.360;2024-02-15T08:03:48;10.40;99.90
3756;DHT22;1893;52.526;13.360;2024-02-15T08:06:16;10.50;99.90
3756;DHT22;1893;52.526;13.360;2024-02-15T08:08:43;10.50;99.90
3756;DHT22;1893;52.526;13.360;2024-02-15T08:11:13;10.50;99.90
3756;DHT22;1893;52.526;13.360;2024-02-15T08:13:50;10.50;99.90
3756;DHT22;1893;52.526;13.360;2024-02-15T08:16:16;10.60;99.90
3756;DHT22;1893;52.526;13.360;2024-02-15T08:18:43;10.60;99.90
3756;DHT22;1893;52.526;13.360;2024-02-15T08:21:09;10.60;99.90
3756;DHT22;1893;52.526;13.360;2024-02-15T08:23:36;10.60;99.90
3756;DHT22;1893;52.526;13.360;2024-02-15T08:26:02;10.70;99.90
3756;DHT22;1893;52.526;13.360;2024-02-15T08:28:27;10.70;99.90
3756;DHT22;1893;52.526;13.360;2024-02-15T08:30:55;10.70;99.90
3756;DHT22;1893;52.526;13.360;2024-02-15T08:33:21;10.60;99.90
3756;DHT22;1893;52.526;13.360;2024-02-15T08:35:47;10.50;99.90
3756;DHT22;1893;52.526;13.360;2024-02-15T08:38:12;10.60;99.90
3756;DHT22;1893;52.526;13.360;2024-02-15T08:40:38;10.60;99.90
3756;DHT22;1893;52.526;13.360;2024-02-15T08:43:04;10.60;99.90
3756;DHT22;1893;52.526;13.360;2024-02-15T08:45:29;10.60;99.90
3756;DHT22;1893;52.526;13.360;2024-02-15T08:47:55;10.60;99.90
3756;DHT22;1893;52.526;13.360;2024-02-15T08:50:20;10.60;99.90
3756;DHT22;1893;52.526;13.360;2024-02-15T08:52:48;10.80;99.90
3756;DHT22;1893;52.526;13.360;2024-02-15T08:55:14;10.70;99.90
3756;DHT22;1893;52.526;13.360;2024-02-15T08:57:40;10.70;99.90
3756;DHT22;1893;52.526;13.360;2024-02-15T09:00:07;10.80;99.90
3756;DHT22;1893;52.526;13.360;2024-02-15T09:02:39;10.80;99.90
3756;DHT22;1893;52.526;13.360;2024-02-15T09:05:06;10.90;99.90
3756;DHT22;1893;52.526;13.360;2024-02-15T09:07:31;10.90;99.90
3756;DHT22;1893;52.526;13.360;2024-02-15T09:09:57;11.00;99.90
3756;DHT22;1893;52.526;13.360;2024-02-15T09:12:23;11.00;99.90
3756;DHT22;1893;52.526;13.360;2024-02-15T09:14:48;11.10;99.90
3756;DHT22;1893;52.526;13.360;2024-02-15T09:17:14;11.10;99.90
3756;DHT22;1893;52.526;13.360;2024-02-15T09:19:39;11.20;99.90
3756;DHT22;1893;52.526;13.360;2024-02-15T09:22:07;11.30;99.90
3756;DHT22;1893;52.526;13.360;2024-02-15T09:24:33;11.30;99.90
3756;DHT22;1893;52.526;13.360;2024-02-15T09:27:02;11.30;99.90
3756;DHT22;1893;52.526;13.360;2024-02-15T09:29:31;11.40;99.90
3756;DHT22;1893;52.526;13.360;2024-02-15T09:31:58;11.30;99.90
3756;DHT22;1893;52.526;13.360;2024-02-15T09:34:27;11.30;99.90
3756;DHT22;1893;52.526;13.360;2024-02-15T09:36:53;11.30;99.90
3756;DHT22;1893;52.526;13.360;2024-02-15T09:39:18;11.20;99.90
3756;DHT22;1893;52.526;13.360;2024-02-15T09:41:44;11.20;99.90
3756;DHT22;1893;52.526;13.360;2024-02-15T09:44:10;11.20;99.90
3756;DHT22;1893;52.526;13.360;2024-02-15T09:46:43;11.20;99.90
3756;DHT22;1893;52.526;13.360;2024-02-15T09:49:12;11.20;99.90
3756;DHT22;1893;52.526;13.360;2024-02-15T09:51:40;11.20;99.90
3756;DHT22;1893;52.526;13.360;2024-02-15T09:54:06;11.30;99.90
3756;DHT22;1893;52.526;13.360;2024-02-15T09:56:35;11.30;99.90
3756;DHT22;1893;52.526;13.360;2024-02-15T09:59:01;11.30;99.90
3756;DHT22;1893;52.526;13.360;2024-02-15T10:01:31;11.40;99.90
3756;DHT22;1893;52.526;13.360;2024-02-15T10:03:57;11.40;99.90
3756;DHT22;1893;52.526;13.360;2024-02-15T10:06:24;11.40;99.90
3756;DHT22;1893;52.526;13.360;2024-02-15T10:08:50;11.60;99.90
3756;DHT22;1893;52.526;13.360;2024-02-15T10:11:16;11.50;99.90
3756;DHT22;1893;52.526;13.360;2024-02-15T10:13:42;11.50;99.90
3756;DHT22;1893;52.526;13.360;2024-02-15T10:16:17;11.50;99.90
3756;DHT22;1893;52.526;13.360;2024-02-15T10:18:45;11.60;99.90
3756;DHT22;1893;52.526;13.360;2024-02-15T10:24:07;11.70;99.90
3756;DHT22;1893;52.526;13.360;2024-02-15T10:26:34;11.80;99.90
3756;DHT22;1893;52.526;13.360;2024-02-15T10:29:10;11.90;99.90
3756;DHT22;1893;52.526;13.360;2024-02-15T10:31:40;12.00;99.90
3756;DHT22;1893;52.526;13.360;2024-02-15T10:34:17;12.00;99.90
3756;DHT22;1893;52.526;13.360;2024-02-15T10:36:44;11.90;99.90
3756;DHT22;1893;52.526;13.360;2024-02-15T10:39:15;12.00;99.90
3756;DHT22;1893;52.526;13.360;2024-02-15T10:41:49;11.90;99.90
3756;DHT22;1893;52.526;13.360;2024-02-15T10:44:19;11.90;99.90
3756;DHT22;1893;52.526;13.360;2024-02-15T10:46:46;12.10;99.90
3756;DHT22;1893;52.526;13.360;2024-02-15T10:49:17;12.20;99.90
3756;DHT22;1893;52.526;13.360;2024-02-15T10:51:44;12.30;99.90
3756;DHT22;1893;52.526;13.360;2024-02-15T10:54:12;12.30;99.90
3756;DHT22;1893;52.526;13.360;2024-02-15T10:56:43;12.30;99.90
3756;DHT22;1893;52.526;13.360;2024-02-15T10:59:19;12.30;99.90
3756;DHT22;1893;52.526;13.360;2024-02-15T11:01:49;12.40;99.90
3756;DHT22;1893;52.526;13.360;2024-02-15T11:04:20;12.40;99.90
3756;DHT22;1893;52.526;13.360;2024-02-15T11:06:53;12.50;99.90
3756;DHT22;1893;52.526;13.360;2024-02-15T11:09:21;12.70;99.90
3756;DHT22;1893;52.526;13.360;2024-02-15T11:11:48;12.80;99.90
3756;DHT22;1893;52.526;13.360;2024-02-15T11:14:25;12.80;99.90
3756;DHT22;1893;52.526;13.360;2024-02-15T11:16:52;12.80;99.90
3756;DHT22;1893;52.526;13.360;2024-02-15T11:22:07;12.80;99.90
3756;DHT22;1893;52.526;13.360;2024-02-15T11:24:36;12.70;99.90
3756;DHT22;1893;52.526;13.360;2024-02-15T11:27:04;12.80;99.90
3756;DHT22;1893;52.526;13.360;2024-02-15T11:29:49;12.80;99.90
3756;DHT22;1893;52.526;13.360;2024-02-15T11:35:11;12.80;99.90
3756;DHT22;1893;52.526;13.360;2024-02-15T11:40:19;12.60;99.90
3756;DHT22;1893;52.526;13.360;2024-02-15T11:42:45;12.70;99.90
3756;DHT22;1893;52.526;13.360;2024-02-15T11:45:15;12.60;99.90
3756;DHT22;1893;52.526;13.360;2024-02-15T11:47:52;12.50;99.90
3756;DHT22;1893;52.526;13.360;2024-02-15T11:50:19;12.40;99.90
3756;DHT22;1893;52.526;13.360;2024-02-15T11:52:46;12.50;99.90
3756;DHT22;1893;52.526;13.360;2024-02-15T11:55:23;12.50;99.90
3756;DHT22;1893;52.526;13.360;2024-02-15T11:57:55;12.50;99.90
3756;DHT22;1893;52.526;13.360;2024-02-15T12:00:28;12.40;99.90
3756;DHT22;1893;52.526;13.360;2024-02-15T12:03:14;12.40;99.90
3756;DHT22;1893;52.526;13.360;2024-02-15T12:05:59;12.40;99.90
3756;DHT22;1893;52.526;13.360;2024-02-15T12:08:45;12.40;99.90
3756;DHT22;1893;52.526;13.360;2024-02-15T12:11:29;12.50;99.90
3756;DHT22;1893;52.526;13.360;2024-02-15T12:14:14;12.50;99.90
3756;DHT22;1893;52.526;13.360;2024-02-15T12:17:06;12.50;99.90
3756;DHT22;1893;52.526;13.360;2024-02-15T12:19:52;12.50;99.90
3756;DHT22;1893;52.526;13.360;2024-02-15T12:22:27;12.50;99.90
3756;DHT22;1893;52.526;13.360;2024-02-15T12:24:58;12.50;99.90
3756;DHT22;1893;52.526;13.360;2024-02-15T12:27:25;12.60;99.90
3756;DHT22;1893;52.526;13.360;2024-02-15T12:29:56;12.80;99.90
3756;DHT22;1893;52.526;13.360;2024-02-15T12:32:24;12.80;99.90
3756;DHT22;1893;52.526;13.360;2024-02-15T12:34:50;12.90;99.90
3756;DHT22;1893;52.526;13.360;2024-02-15T12:37:22;13.10;99.90
3756;DHT22;1893;52.526;13.360;2024-02-15T12:39:49;13.10;99.90
3756;DHT22;1893;52.526;13.360;2024-02-15T12:42:16;13.20;99.90
3756;DHT22;1893;52.526;13.360;2024-02-15T12:44:46;13.20;99.90
3756;DHT22;1893;52.526;13.360;2024-02-15T12:47:22;13.30;99.90
3756;DHT22;1893;52.526;13.360;2024-02-15T12:49:48;13.30;99.90
3756;DHT22;1893;52.526;13.360;2024-02-15T12:52:36;13.20;99.90
3756;DHT22;1893;52.526;13.360;2024-02-15T12:55:08;13.20;99.90
3756;DHT22;1893;52.526;13.360;2024-02-15T12:57:34;13.20;99.90
3756;DHT22;1893;52.526;13.360;2024-02-15T13:00:01;13.40;99.90
3756;DHT22;1893;52.526;13.360;2024-02-15T13:02:39;13.40;99.90
3756;DHT22;1893;52.526;13.360;2024-02-15T13:05:08;13.40;99.90
3756;DHT22;1893;52.526;13.360;2024-02-15T13:07:35;13.40;99.90
3756;DHT22;1893;52.526;13.360;2024-02-15T13:10:01;13.60;99.90
3756;DHT22;1893;52.526;13.360;2024-02-15T13:12:27;13.60;99.90
3756;DHT22;1893;52.526;13.360;2024-02-15T13:14:53;13.70;99.90
3756;DHT22;1893;52.526;13.360;2024-02-15T13:17:19;13.60;99.90
3756;DHT22;1893;52.526;13.360;2024-02-15T13:19:48;13.60;99.90
3756;DHT22;1893;52.526;13.360;2024-02-15T13:22:17;13.60;99.90
3756;DHT22;1893;52.526;13.360;2024-02-15T13:24:44;13.50;99.90
3756;DHT22;1893;52.526;13.360;2024-02-15T13:27:10;13.50;99.90
3756;DHT22;1893;52.526;13.360;2024-02-15T13:29:47;13.50;99.90
3756;DHT22;1893;52.526;13.360;2024-02-15T13:32:37;13.60;99.90
3756;DHT22;1893;52.526;13.360;2024-02-15T13:35:09;13.60;99.90
3756;DHT22;1893;52.526;13.360;2024-02-15T13:37:46;13.70;99.90
3756;DHT22;1893;52.526;13.360;2024-02-15T13:40:12;13.70;99.90
3756;DHT22;1893;52.526;13.360;2024-02-15T13:42:47;13.70;99.90
3756;DHT22;1893;52.526;13.360;2024-02-15T13:45:20;13.70;99.90
3756;DHT22;1893;52.526;13.360;2024-02-15T13:47:48;13.70;99.90
3756;DHT22;1893;52.526;13.360;2024-02-15T13:50:14;13.70;99.90
3756;DHT22;1893;52.526;13.360;2024-02-15T13:52:44;13.70;99.90
3756;DHT22;1893;52.526;13.360;2024-02-15T13:55:14;13.60;99.90
3756;DHT22;1893;52.526;13.360;2024-02-15T13:57:44;13.60;99.90
3756;DHT22;1893;52.526;13.360;2024-02-15T14:00:11;13.60;99.90
3756;DHT22;1893;52.526;13.360;2024-02-15T14:02:40;13.60;99.90
3756;DHT22;1893;52.526;13.360;2024-02-15T14:05:11;13.60;99.90
3756;DHT22;1893;52.526;13.360;2024-02-15T14:07:38;13.60;99.90
3756;DHT22;1893;52.526;13.360;2024-02-15T14:10:07;13.70;99.90
3756;DHT22;1893;52.526;13.360;2024-02-15T14:12:33;13.80;99.90
3756;DHT22;1893;52.526;13.360;2024-02-15T14:15:00;13.80;99.90
3756;DHT22;1893;52.526;13.360;2024-02-15T14:17:25;13.80;99.90
3756;DHT22;1893;52.526;13.360;2024-02-15T14:19:53;13.70;99.90
3756;DHT22;1893;52.526;13.360;2024-02-15T14:22:19;13.70;99.90
3756;DHT22;1893;52.526;13.360;2024-02-15T14:24:49;13.60;99.90
3756;DHT22;1893;52.526;13.360;2024-02-15T14:27:14;13.60;99.90
3756;DHT22;1893;52.526;13.360;2024-02-15T14:29:40;13.50;99.90
3756;DHT22;1893;52.526;13.360;2024-02-15T14:32:26;13.60;99.90
3756;DHT22;1893;52.526;13.360;2024-02-15T14:35:10;13.60;99.90
3756;DHT22;1893;52.526;13.360;2024-02-15T14:37:37;13.60;99.90
3756;DHT22;1893;52.526;13.360;2024-02-15T14:40:06;13.60;99.90
3756;DHT22;1893;52.526;13.360;2024-02-15T14:42:32;13.60;99.90
3756;DHT22;1893;52.526;13.360;2024-02-15T14:44:59;13.60;99.90
3756;DHT22;1893;52.526;13.360;2024-02-15T14:47:25;13.60;99.90
3756;DHT22;1893;52.526;13.360;2024-02-15T14:49:51;13.60;99.90
3756;DHT22;1893;52.526;13.360;2024-02-15T14:52:17;13.60;99.90
3756;DHT22;1893;52.526;13.360;2024-02-15T14:54:43;13.60;99.90
3756;DHT22;1893;52.526;13.360;2024-02-15T14:57:09;13.50;99.90
3756;DHT22;1893;52.526;13.360;2024-02-15T14:59:34;13.50;99.90
3756;DHT22;1893;52.526;13.360;2024-02-15T15:02:01;13.50;99.90
3756;DHT22;1893;52.526;13.360;2024-02-15T15:04:34;13.40;99.90
3756;DHT22;1893;52.526;13.360;2024-02-15T15:07:13;13.40;99.90
3756;DHT22;1893;52.526;13.360;2024-02-15T15:09:57;13.40;99.90
3756;DHT22;1893;52.526;13.360;2024-02-15T15:12:40;13.40;99.90
3756;DHT22;1893;52.526;13.360;2024-02-15T15:15:11;13.40;99.90
3756;DHT22;1893;52.526;13.360;2024-02-15T15:17:38;13.30;99.90
3756;DHT22;1893;52.526;13.360;2024-02-15T15:20:05;13.30;99.90
3756;DHT22;1893;52.526;13.360;2024-02-15T15:22:34;13.20;99.90
3756;DHT22;1893;52.526;13.360;2024-02-15T15:25:00;13.20;99.90
3756;DHT22;1893;52.526;13.360;2024-02-15T15:27:27;13.30;99.90
3756;DHT22;1893;52.526;13.360;2024-02-15T15:29:53;13.20;99.90
3756;DHT22;1893;52.526;13.360;2024-02-15T15:32:19;13.20;99.90
3756;DHT22;1893;52.526;13.360;2024-02-15T15:34:45;13.20;99.90
3756;DHT22;1893;52.526;13.360;2024-02-15T15:37:10;13.10;99.90
3756;DHT22;1893;52.526;13.360;2024-02-15T15:39:37;13.10;99.90
3756;DHT22;1893;52.526;13.360;2024-02-15T15:42:04;13.10;99.90
3756;DHT22;1893;52.526;13.360;2024-02-15T15:44:33;13.10;99.90
3756;DHT22;1893;52.526;13.360;2024-02-15T15:46:59;13.10;99.90
3756;DHT22;1893;52.526;13.360;2024-02-15T15:49:25;13.20;99.90
3756;DHT22;1893;52.526;13.360;2024-02-15T15:51:51;13.10;99.90
3756;DHT22;1893;52.526;13.360;2024-02-15T15:54:18;13.10;99.90
3756;DHT22;1893;52.526;13.360;2024-02-15T15:56:45;13.00;99.90
3756;DHT22;1893;52.526;13.360;2024-02-15T15:59:11;13.00;99.90
3756;DHT22;1893;52.526;13.360;2024-02-15T16:01:37;13.00;99.90
3756;DHT22;1893;52.526;13.360;2024-02-15T16:04:03;13.00;99.90
3756;DHT22;1893;52.526;13.360;2024-02-15T16:06:29;13.00;99.90
3756;DHT22;1893;52.526;13.360;2024-02-15T16:08:55;13.00;99.90
3756;DHT22;1893;52.526;13.360;2024-02-15T16:11:21;13.00;99.90
3756;DHT22;1893;52.526;13.360;2024-02-15T16:13:46;13.00;99.90
3756;DHT22;1893;52.526;13.360;2024-02-15T16:16:13;12.90;99.90